Time;durP1;ratioP1;P1;durP2;ratioP2;P2;SDS_P1;SDS_P2;PMS_P1;PMS_P2;Temp;Humidity;BMP_temperature;BMP_pressure;BME280_temperature;BME280_humidity;BME280_pressure;Samples;Min_cycle;Max_cycle;Signal;HPM_P1;HPM_P2
2022/11/11 00:00:36;;;;;;;5.07;2.90;;;;;;;4.61;100.00;97703.44;5058301;28;20212;-69
2022/11/11 00:03:03;;;;;;;8.33;3.70;;;;;;;4.52;100.00;97704.09;5058309;28;20201;-69
2022/11/11 00:05:30;;;;;;;8.33;3.73;;;;;;;4.48;100.00;97701.75;5058007;28;20207;-68
2022/11/11 00:07:58;;;;;;;7.93;3.70;;;;;;;4.49;100.00;97703.44;5058024;28;20225;-69
2022/11/11 00:10:27;;;;;;;12.20;3.93;;;;;;;4.57;100.00;97706.34;5075931;28;20211;-69
2022/11/11 00:12:53;;;;;;;11.43;4.13;;;;;;;4.57;100.00;97703.75;5064767;28;20543;-68
2022/11/11 00:15:20;;;;;;;9.97;3.87;;;;;;;4.56;100.00;97709.94;5057955;28;21082;-68
2022/11/11 00:26:07;;;;;;;11.03;4.40;;;;;;;4.78;100.00;97699.69;5057913;28;20625;-68
2022/11/11 00:28:33;;;;;;;17.63;5.47;;;;;;;4.80;100.00;97697.78;5057800;28;20220;-69
2022/11/11 00:31:04;;;;;;;11.87;5.33;;;;;;;4.92;100.00;97682.91;5057472;28;20200;-69
2022/11/11 00:33:31;;;;;;;16.97;4.77;;;;;;;4.91;100.00;97689.09;5056920;28;20235;-68
2022/11/11 00:35:57;;;;;;;12.73;4.43;;;;;;;5.06;100.00;97687.19;5055333;28;20213;-69
2022/11/11 00:41:06;;;;;;;10.87;4.53;;;;;;;5.06;100.00;97690.63;5048611;28;20219;-69
2022/11/11 00:43:32;;;;;;;22.83;5.20;;;;;;;5.00;100.00;97696.28;5059171;28;20202;-68
2022/11/11 00:51:23;;;;;;;22.60;5.80;;;;;;;5.18;100.00;97708.06;5065415;28;20303;-68
2022/11/11 00:53:50;;;;;;;21.83;5.83;;;;;;;5.21;100.00;97709.63;5056448;28;21013;-69
2022/11/11 00:56:17;;;;;;;18.97;5.43;;;;;;;5.21;100.00;97717.44;5065269;28;20200;-69
2022/11/11 00:58:44;;;;;;;19.13;5.87;;;;;;;5.20;100.00;97714.00;5057308;28;20199;-68
2022/11/11 01:01:11;;;;;;;25.27;5.70;;;;;;;5.18;100.00;97710.66;5057131;28;20208;-69
2022/11/11 01:03:37;;;;;;;18.90;6.57;;;;;;;5.15;100.00;97720.50;5056709;28;20227;-68
2022/11/11 01:06:05;;;;;;;22.70;6.83;;;;;;;5.19;100.00;97717.53;5058526;28;20205;-68
2022/11/11 01:08:32;;;;;;;17.20;6.87;;;;;;;5.27;100.00;97728.31;5056932;28;20219;-69
2022/11/11 01:10:59;;;;;;;18.73;6.77;;;;;;;5.16;100.00;97723.00;5056261;28;20215;-68
2022/11/11 01:13:29;;;;;;;23.33;6.27;;;;;;;5.12;100.00;97724.16;5056751;28;20236;-68
2022/11/11 01:15:59;;;;;;;26.50;6.97;;;;;;;4.95;100.00;97716.69;5057397;28;20200;-68
2022/11/11 01:18:27;;;;;;;21.57;6.30;;;;;;;4.87;100.00;97703.31;5056985;28;20220;-69
2022/11/11 01:20:59;;;;;;;17.03;6.40;;;;;;;5.09;100.00;97706.09;5057601;28;20196;-69
2022/11/11 01:23:26;;;;;;;14.40;6.00;;;;;;;5.04;100.00;97696.88;5056510;28;20209;-68
2022/11/11 01:25:52;;;;;;;18.27;6.00;;;;;;;4.97;100.00;97693.06;5056861;28;20218;-68
2022/11/11 01:28:19;;;;;;;14.20;5.87;;;;;;;4.85;100.00;97697.34;5056904;28;20246;-68
2022/11/11 01:30:47;;;;;;;16.27;5.53;;;;;;;4.84;100.00;97706.13;5064960;28;20212;-68
2022/11/11 01:33:13;;;;;;;16.07;5.90;;;;;;;4.85;100.00;97710.41;5055925;28;20578;-69
2022/11/11 01:35:41;;;;;;;16.90;5.43;;;;;;;4.84;100.00;97710.53;5064685;28;21071;-68
2022/11/11 01:38:08;;;;;;;13.90;6.20;;;;;;;4.74;100.00;97727.75;5055137;28;20224;-68
2022/11/11 01:40:40;;;;;;;14.07;6.20;;;;;;;4.84;100.00;97720.97;5064496;28;20197;-68
2022/11/11 01:43:22;;;;;;;16.87;5.73;;;;;;;4.80;100.00;97718.66;5056404;28;20617;-69
2022/11/11 01:46:02;;;;;;;20.13;5.70;;;;;;;4.82;100.00;97711.56;5063153;28;20203;-68
2022/11/11 01:51:27;;;;;;;11.43;5.60;;;;;;;4.82;100.00;97718.47;5056948;28;20235;-68
2022/11/11 01:54:00;;;;;;;12.53;6.37;;;;;;;4.82;100.00;97711.56;5056530;28;20265;-68
2022/11/11 01:56:27;;;;;;;12.67;5.83;;;;;;;4.80;100.00;97709.06;5056166;28;20227;-68
2022/11/11 01:58:56;;;;;;;10.93;5.73;;;;;;;4.83;100.00;97701.84;5056806;28;20197;-68
2022/11/11 02:01:24;;;;;;;16.57;5.60;;;;;;;4.85;100.00;97696.53;5058434;28;20289;-68
2022/11/11 02:06:34;;;;;;;13.43;5.97;;;;;;;4.81;100.00;97697.66;5059944;28;20755;-68
2022/11/11 02:09:03;;;;;;;12.37;6.37;;;;;;;4.74;100.00;97704.25;5061338;28;20577;-69
2022/11/11 02:17:03;;;;;;;8.83;5.17;;;;;;;4.77;100.00;97703.22;5061561;28;20270;-68
2022/11/11 02:19:40;;;;;;;16.23;5.60;;;;;;;4.73;100.00;97702.59;5068531;28;20205;-68
2022/11/11 02:22:10;;;;;;;19.57;5.40;;;;;;;4.70;100.00;97707.19;5060020;28;20200;-68
2022/11/11 02:24:42;;;;;;;12.23;5.60;;;;;;;4.69;100.00;97706.34;5059778;28;20687;-68
2022/11/11 02:27:12;;;;;;;18.13;5.80;;;;;;;4.78;100.00;97707.50;5062981;28;20919;-68
2022/11/11 02:29:40;;;;;;;12.00;5.83;;;;;;;4.80;100.00;97711.69;5061599;28;20197;-68
2022/11/11 02:32:06;;;;;;;21.40;5.83;;;;;;;4.84;100.00;97719.19;5060576;28;20210;-68
2022/11/11 02:34:34;;;;;;;16.57;5.47;;;;;;;4.87;100.00;97721.59;5059703;28;20611;-68
2022/11/11 02:37:04;;;;;;;11.77;5.43;;;;;;;4.93;100.00;97726.38;5057666;28;20228;-68
2022/11/11 02:39:34;;;;;;;10.23;6.10;;;;;;;4.91;100.00;97722.19;5065784;28;20207;-68
2022/11/11 02:42:08;;;;;;;17.30;4.90;;;;;;;4.92;100.00;97722.09;5059984;28;20215;-68
2022/11/11 02:44:35;;;;;;;9.17;5.07;;;;;;;4.88;100.00;97723.25;5059832;28;20204;-68
2022/11/11 02:47:02;;;;;;;24.60;5.10;;;;;;;4.95;100.00;97727.13;5059785;28;20255;-68
2022/11/11 02:49:29;;;;;;;10.77;5.57;;;;;;;4.95;100.00;97729.72;5059656;28;20197;-69
2022/11/11 02:51:55;;;;;;;25.90;5.60;;;;;;;5.01;100.00;97731.06;5060046;28;20938;-69
2022/11/11 02:54:22;;;;;;;15.73;4.60;;;;;;;5.00;100.00;97732.88;5067073;28;20221;-69
2022/11/11 02:57:06;;;;;;;10.33;5.60;;;;;;;5.03;100.00;97732.63;5059525;28;20231;-69
2022/11/11 02:59:35;;;;;;;8.83;4.60;;;;;;;5.06;100.00;97728.97;5059446;28;21188;-68
2022/11/11 03:02:02;;;;;;;19.10;5.50;;;;;;;4.94;100.00;97727.22;5061721;28;20214;-69
2022/11/11 03:04:28;;;;;;;26.80;5.37;;;;;;;4.99;100.00;97725.97;5059075;28;21271;-68
2022/11/11 03:06:55;;;;;;;15.77;5.50;;;;;;;5.00;100.00;97726.78;5059355;28;20295;-69
2022/11/11 03:09:22;;;;;;;11.10;4.83;;;;;;;5.03;100.00;97732.63;5059431;28;20695;-69
2022/11/11 03:11:48;;;;;;;14.47;5.03;;;;;;;4.99;100.00;97735.56;5056394;28;20206;-68
2022/11/11 03:14:15;;;;;;;9.63;4.60;;;;;;;4.98;100.00;97744.34;5058766;28;20235;-69
2022/11/11 03:19:26;;;;;;;10.97;4.60;;;;;;;4.98;100.00;97750.41;5059785;28;20867;-69
2022/11/11 03:21:54;;;;;;;22.03;3.93;;;;;;;4.92;100.00;97750.81;5062312;28;20196;-68
2022/11/11 03:24:21;;;;;;;18.00;4.03;;;;;;;4.68;100.00;97761.28;5059859;28;20205;-69
2022/11/11 03:26:47;;;;;;;13.73;4.20;;;;;;;4.66;100.00;97748.34;5059656;28;20220;-69
2022/11/11 03:29:14;;;;;;;15.37;4.27;;;;;;;4.52;100.00;97747.59;5059158;28;20208;-69
2022/11/11 03:31:41;;;;;;;11.83;3.93;;;;;;;4.55;100.00;97745.63;5058728;28;20211;-68
2022/11/11 03:34:18;;;;;;;16.77;4.20;;;;;;;4.63;100.00;97738.09;5058608;28;20231;-69
2022/11/11 03:39:29;;;;;;;26.57;4.43;;;;;;;4.60;100.00;97742.72;5065071;28;20208;-68
2022/11/11 03:41:56;;;;;;;15.47;4.60;;;;;;;4.69;100.00;97734.25;5059140;28;20212;-68
2022/11/11 03:44:22;;;;;;;27.60;4.73;;;;;;;4.85;100.00;97730.50;5060688;28;20200;-68
2022/11/11 03:46:49;;;;;;;16.23;4.53;;;;;;;4.96;100.00;97731.41;5064115;28;20216;-69
2022/11/11 03:49:17;;;;;;;10.63;4.90;;;;;;;5.00;100.00;97730.25;5060043;28;20585;-69
2022/11/11 03:51:43;;;;;;;7.93;4.83;;;;;;;4.97;100.00;97738.28;5065524;28;20205;-69
2022/11/11 03:54:10;;;;;;;9.43;5.13;;;;;;;5.00;100.00;97743.31;5057760;28;20224;-69
2022/11/11 03:56:36;;;;;;;9.77;4.90;;;;;;;4.97;100.00;97740.91;5058596;28;20220;-69
2022/11/11 03:59:03;;;;;;;16.30;6.10;;;;;;;5.01;100.00;97742.34;5064786;28;20203;-69
2022/11/11 04:12:29;;;;;;;10.77;6.17;;;;;;;4.90;100.00;97721.38;5057544;28;20257;-69
2022/11/11 04:17:39;;;;;;;20.03;10.10;;;;;;;4.90;100.00;97721.38;5057888;28;20231;-69
2022/11/11 04:22:53;;;;;;;10.83;5.03;;;;;;;4.71;100.00;97714.06;5056489;28;20254;-69
2022/11/11 04:30:48;;;;;;;8.43;4.37;;;;;;;4.73;100.00;97733.09;5062262;28;20206;-69
2022/11/11 04:33:14;;;;;;;8.33;4.70;;;;;;;4.58;100.00;97732.38;5057956;28;20204;-69
2022/11/11 04:35:41;;;;;;;8.43;5.10;;;;;;;4.57;100.00;97733.31;5064559;28;20243;-69
2022/11/11 04:41:07;;;;;;;16.17;5.73;;;;;;;4.63;100.00;97753.75;5057371;28;20211;-69
2022/11/11 04:45:26;;;;;;;8.97;5.00;;;;;;;4.60;100.00;97763.59;5061663;28;20284;-69
2022/11/11 04:46:20;;;;;;;13.70;4.43;;;;;;;4.51;100.00;97766.84;5057992;28;20229;-69
2022/11/11 04:48:47;;;;;;;9.97;5.00;;;;;;;4.45;100.00;97767.22;5058803;28;20294;-69
2022/11/11 04:51:13;;;;;;;8.20;4.87;;;;;;;4.33;100.00;97762.84;5060043;28;20208;-68
2022/11/11 04:53:41;;;;;;;10.60;5.13;;;;;;;4.41;100.00;97752.72;5056961;28;20201;-69
2022/11/11 04:59:14;;;;;;;22.30;4.47;;;;;;;4.18;100.00;97771.69;5057184;28;20207;-69
2022/11/11 05:04:22;;;;;;;10.80;4.47;;;;;;;4.20;100.00;97788.09;5064316;28;20218;-69
2022/11/11 05:09:34;;;;;;;14.00;4.73;;;;;;;4.15;100.00;97790.16;5064843;28;20245;-69
2022/11/11 05:12:01;;;;;;;14.53;5.53;;;;;;;4.21;100.00;97789.72;5063987;28;20665;-69
2022/11/11 05:22:41;;;;;;;9.87;3.77;;;;;;;4.04;100.00;97800.44;5056630;28;20261;-69
2022/11/11 05:25:24;;;;;;;6.60;3.80;;;;;;;4.09;100.00;97803.59;5056968;28;21124;-69
2022/11/11 05:27:51;;;;;;;32.47;9.17;;;;;;;4.10;100.00;97805.28;5056898;28;20228;-69
2022/11/11 05:30:18;;;;;;;27.10;7.40;;;;;;;4.01;100.00;97803.25;5059536;28;20200;-69
2022/11/11 05:32:44;;;;;;;17.70;6.70;;;;;;;4.10;100.00;97807.88;5057768;28;20208;-69
2022/11/11 05:35:13;;;;;;;26.53;8.30;;;;;;;4.14;100.00;97805.88;5056721;28;20220;-70
2022/11/11 05:37:39;;;;;;;41.70;11.17;;;;;;;4.11;100.00;97808.69;5055254;28;20220;-69
2022/11/11 05:40:10;;;;;;;26.33;7.77;;;;;;;4.26;100.00;97803.31;5056993;28;20204;-69
2022/11/11 05:42:41;;;;;;;13.37;5.20;;;;;;;4.32;100.00;97810.75;5056059;28;20196;-69
2022/11/11 05:45:09;;;;;;;10.30;4.70;;;;;;;4.43;100.00;97806.50;5057337;28;20215;-69
2022/11/11 05:47:35;;;;;;;10.33;4.43;;;;;;;4.25;100.00;97819.91;5070685;28;20216;-70
2022/11/11 05:50:02;;;;;;;9.87;5.03;;;;;;;4.09;100.00;97821.84;5060546;28;20207;-69
2022/11/11 05:52:28;;;;;;;19.37;4.73;;;;;;;4.15;100.00;97833.66;5064973;28;20219;-69
2022/11/11 05:54:55;;;;;;;10.50;4.70;;;;;;;4.09;100.00;97834.06;5061303;28;20227;-69
2022/11/11 05:57:22;;;;;;;11.93;5.30;;;;;;;4.13;100.00;97844.19;5064850;28;20228;-69
2022/11/11 05:59:49;;;;;;;16.40;3.53;;;;;;;4.06;100.00;97850.75;5056744;28;20200;-69
2022/11/11 06:02:16;;;;;;;25.23;4.63;;;;;;;4.17;100.00;97852.66;5061256;28;20742;-69
2022/11/11 06:04:42;;;;;;;9.87;3.97;;;;;;;4.09;100.00;97855.75;5068008;28;20199;-69
2022/11/11 06:07:09;;;;;;;12.13;4.00;;;;;;;4.13;100.00;97853.81;5056861;28;20227;-69
2022/11/11 06:09:35;;;;;;;15.27;4.17;;;;;;;4.11;100.00;97853.91;5062284;28;20673;-69
2022/11/11 06:12:01;;;;;;;17.93;4.50;;;;;;;4.11;100.00;97856.50;5057311;28;20204;-69
2022/11/11 06:14:29;;;;;;;7.80;4.60;;;;;;;4.28;100.00;97861.47;5055731;28;20683;-69
2022/11/11 06:16:56;;;;;;;23.00;5.13;;;;;;;4.10;100.00;97864.41;5055950;28;20235;-69
2022/11/11 06:19:22;;;;;;;29.43;5.10;;;;;;;4.10;100.00;97867.88;5057395;28;21249;-69
2022/11/11 06:21:58;;;;;;;7.03;4.43;;;;;;;4.27;100.00;97865.84;5056713;28;20203;-69
2022/11/11 06:24:24;;;;;;;13.13;4.53;;;;;;;4.24;100.00;97870.44;5055347;28;20601;-69
2022/11/11 06:26:50;;;;;;;15.33;4.87;;;;;;;4.22;100.00;97864.47;5057210;28;20216;-69
2022/11/11 06:29:16;;;;;;;11.97;4.57;;;;;;;4.27;100.00;97865.84;5056822;28;20215;-68
2022/11/11 06:31:45;;;;;;;10.43;4.53;;;;;;;4.39;100.00;97874.63;5063649;28;20201;-69
2022/11/11 06:34:11;;;;;;;18.97;4.20;;;;;;;4.39;100.00;97874.63;5058964;28;20208;-69
2022/11/11 06:36:38;;;;;;;12.10;5.03;;;;;;;4.44;100.00;97880.41;5062686;28;20220;-69
2022/11/11 06:39:04;;;;;;;14.90;4.60;;;;;;;4.52;100.00;97889.41;5056314;28;20208;-68
2022/11/11 06:41:31;;;;;;;12.37;4.73;;;;;;;4.63;100.00;97896.53;5058292;28;20742;-68
2022/11/11 06:43:58;;;;;;;8.83;4.67;;;;;;;4.55;100.00;97899.63;5060566;28;20204;-69
2022/11/11 06:46:25;;;;;;;24.77;5.00;;;;;;;4.56;100.00;97900.50;5062837;28;20228;-69
2022/11/11 06:48:53;;;;;;;10.40;4.80;;;;;;;4.69;100.00;97915.25;5059997;28;20204;-69
2022/11/11 06:51:20;;;;;;;18.20;5.27;;;;;;;4.56;100.00;97908.31;5059951;28;20200;-69
2022/11/11 06:53:46;;;;;;;15.20;5.87;;;;;;;4.59;100.00;97908.13;5059186;28;20204;-68
2022/11/11 06:56:13;;;;;;;12.23;5.40;;;;;;;4.74;100.00;97912.34;5060905;28;20225;-69
2022/11/11 06:58:40;;;;;;;12.23;5.40;;;;;;;4.83;100.00;97908.16;5067994;28;20207;-69
2022/11/11 07:01:08;;;;;;;22.23;5.90;;;;;;;4.72;100.00;97908.97;5059493;28;20575;-69
2022/11/11 07:03:35;;;;;;;12.27;5.20;;;;;;;4.73;100.00;97911.47;5058634;28;20660;-69
2022/11/11 07:06:04;;;;;;;11.57;5.43;;;;;;;4.80;100.00;97906.69;5059512;28;20205;-69
2022/11/11 07:08:32;;;;;;;15.33;5.03;;;;;;;4.64;100.00;97906.88;5059493;28;20196;-69
2022/11/11 07:10:58;;;;;;;10.37;4.87;;;;;;;4.67;100.00;97904.06;5065560;28;20218;-69
2022/11/11 07:13:25;;;;;;;34.83;5.97;;;;;;;4.36;100.00;97911.38;5060195;28;20214;-69
2022/11/11 07:15:51;;;;;;;15.13;5.73;;;;;;;4.47;100.00;97903.72;5067908;28;20706;-69
2022/11/11 07:18:18;;;;;;;12.13;5.87;;;;;;;4.63;100.00;97905.19;5058527;28;20221;-69
2022/11/11 07:20:45;;;;;;;29.13;5.90;;;;;;;4.70;100.00;97908.22;5071168;28;20207;-69
2022/11/11 07:23:13;;;;;;;21.83;6.23;;;;;;;4.83;100.00;97913.38;5063950;28;20584;-69
2022/11/11 07:25:39;;;;;;;16.87;5.97;;;;;;;4.92;100.00;97902.31;5065874;28;20199;-69
2022/11/11 07:28:06;;;;;;;21.43;6.13;;;;;;;4.86;100.00;97913.19;5059136;28;20243;-69
2022/11/11 07:30:32;;;;;;;14.40;6.03;;;;;;;4.92;100.00;97923.22;5059485;28;20200;-69
2022/11/11 07:32:59;;;;;;;18.90;6.20;;;;;;;4.70;100.00;97924.75;5058083;28;21159;-69
2022/11/11 07:35:25;;;;;;;21.70;6.03;;;;;;;4.62;100.00;97929.66;5059059;28;20230;-69
2022/11/11 07:37:53;;;;;;;19.60;6.13;;;;;;;4.98;100.00;97927.22;5060033;28;20303;-69
2022/11/11 07:40:21;;;;;;;18.47;7.53;;;;;;;5.15;100.00;97925.13;5058409;28;20973;-69
2022/11/11 07:42:47;;;;;;;22.73;7.40;;;;;;;5.15;100.00;97924.31;5057804;28;20204;-69
2022/11/11 07:45:15;;;;;;;19.60;7.93;;;;;;;5.29;100.00;97927.63;5059700;28;20204;-69
2022/11/11 07:47:43;;;;;;;16.53;5.83;;;;;;;5.36;100.00;97925.44;5058713;28;20220;-69
2022/11/11 07:50:10;;;;;;;13.53;5.63;;;;;;;5.37;100.00;97921.91;5066354;28;20204;-69
2022/11/11 07:52:37;;;;;;;13.40;6.77;;;;;;;5.41;100.00;97923.34;5057795;28;20204;-69
2022/11/11 07:55:04;;;;;;;27.33;7.17;;;;;;;5.52;100.00;97924.28;5058903;28;20271;-70
2022/11/11 07:57:32;;;;;;;12.43;5.73;;;;;;;5.45;100.00;97928.28;5058592;28;20224;-70
2022/11/11 07:59:58;;;;;;;35.53;5.60;;;;;;;5.50;100.00;97937.47;5055931;28;20205;-70
2022/11/11 08:02:25;;;;;;;27.27;5.70;;;;;;;5.56;100.00;97928.38;5057831;28;20208;-70
2022/11/11 08:04:51;;;;;;;19.17;5.23;;;;;;;5.47;100.00;97926.38;5058333;28;20212;-70
2022/11/11 08:07:18;;;;;;;34.50;6.10;;;;;;;5.47;100.00;97926.38;5058191;28;20228;-70
2022/11/11 08:09:45;;;;;;;15.20;5.93;;;;;;;5.45;100.00;97930.91;5058533;28;20266;-70
2022/11/11 08:14:53;;;;;;;26.57;5.90;;;;;;;5.41;100.00;97939.03;5016201;28;20204;-70
2022/11/11 08:17:20;;;;;;;9.07;4.83;;;;;;;5.32;100.00;97937.91;5058424;28;20226;-70
2022/11/11 08:19:46;;;;;;;13.87;5.47;;;;;;;5.37;100.00;97938.41;5058413;28;20196;-70
2022/11/11 08:22:12;;;;;;;10.80;4.63;;;;;;;5.29;100.00;97940.72;5057002;28;21177;-70
2022/11/11 08:24:39;;;;;;;29.13;6.57;;;;;;;5.28;100.00;97935.59;5058091;28;20223;-70
2022/11/11 08:27:05;;;;;;;9.13;5.23;;;;;;;5.30;100.00;97931.94;5057923;28;20335;-70
2022/11/11 08:29:32;;;;;;;19.40;5.97;;;;;;;5.38;100.00;97928.81;5057407;28;20287;-70
2022/11/11 08:32:00;;;;;;;10.37;5.73;;;;;;;5.63;100.00;97932.25;5061123;28;20220;-69
2022/11/11 08:34:26;;;;;;;12.83;5.47;;;;;;;5.52;100.00;97924.28;5071194;28;20203;-73
2022/11/11 08:36:53;;;;;;;19.27;6.17;;;;;;;5.56;100.00;97917.91;5057245;28;20220;-70
2022/11/11 08:39:19;;;;;;;13.27;5.70;;;;;;;5.51;100.00;97915.63;5058131;28;20680;-70
2022/11/11 08:41:46;;;;;;;12.60;6.27;;;;;;;5.47;100.00;97913.31;5058032;28;20226;-70
2022/11/11 08:44:13;;;;;;;17.43;6.33;;;;;;;5.51;100.00;97906.94;5056454;28;20584;-70
2022/11/11 08:46:39;;;;;;;31.70;6.90;;;;;;;5.58;100.00;97913.41;5057678;28;20212;-70
2022/11/11 08:49:10;;;;;;;38.40;6.67;;;;;;;5.54;100.00;97911.97;5058852;28;20204;-70
2022/11/11 08:51:36;;;;;;;23.10;6.87;;;;;;;5.36;100.00;97912.38;5057805;28;20201;-70
2022/11/11 08:54:03;;;;;;;26.70;5.43;;;;;;;5.48;100.00;97912.38;5056293;28;20209;-70
2022/11/11 08:56:29;;;;;;;15.70;7.00;;;;;;;5.64;100.00;97913.84;5057949;28;20240;-70
2022/11/11 08:58:56;;;;;;;22.73;7.97;;;;;;;5.58;100.00;97911.63;5057581;28;21142;-70
2022/11/11 09:01:23;;;;;;;22.13;7.73;;;;;;;5.57;100.00;97909.13;5056998;28;20197;-70
2022/11/11 09:03:49;;;;;;;18.73;7.93;;;;;;;5.67;100.00;97916.22;5057037;28;20205;-70
2022/11/11 09:06:17;;;;;;;20.00;6.87;;;;;;;5.83;100.00;97918.63;5057313;28;20551;-70
2022/11/11 09:08:44;;;;;;;20.60;6.53;;;;;;;5.91;100.00;97921.56;5056943;28;20208;-69
2022/11/11 09:11:11;;;;;;;21.37;6.97;;;;;;;5.86;100.00;97921.88;5057783;28;20330;-70
2022/11/11 09:13:39;;;;;;;12.17;6.93;;;;;;;5.90;100.00;97925.13;5064318;28;20254;-70
2022/11/11 09:16:06;;;;;;;10.40;6.13;;;;;;;6.08;100.00;97929.88;5056835;28;20224;-70
2022/11/11 09:18:33;;;;;;;15.77;6.37;;;;;;;5.86;100.00;97929.72;5056696;28;20199;-70
2022/11/11 09:20:59;;;;;;;32.37;5.93;;;;;;;5.87;100.00;97931.41;5063845;28;20413;-69
2022/11/11 09:23:27;;;;;;;12.13;5.70;;;;;;;6.02;100.00;97932.09;5056974;28;20204;-69
2022/11/11 09:25:54;;;;;;;11.83;6.03;;;;;;;6.08;100.00;97928.13;5057164;28;20193;-69
2022/11/11 09:28:20;;;;;;;10.40;6.00;;;;;;;6.07;100.00;97929.06;5065139;28;20224;-69
2022/11/11 09:30:47;;;;;;;8.87;5.47;;;;;;;6.28;100.00;97932.75;5057186;28;20197;-70
2022/11/11 09:33:15;;;;;;;10.93;5.43;;;;;;;6.41;100.00;97938.78;5056439;28;20207;-70
2022/11/11 09:35:41;;;;;;;11.70;5.73;;;;;;;6.57;100.00;97934.09;5057292;28;20231;-69
2022/11/11 09:38:09;;;;;;;19.33;5.83;;;;;;;6.60;100.00;97944.34;5059262;28;20228;-69
2022/11/11 09:40:49;;;;;;;9.10;4.30;;;;;;;6.55;100.00;97943.03;5056658;28;20710;-69
2022/11/11 09:43:29;;;;;;;14.83;5.40;;;;;;;6.58;100.00;97937.56;5056203;28;20215;-69
2022/11/11 09:46:10;;;;;;;16.20;5.93;;;;;;;6.60;100.00;97943.53;5056302;28;20267;-69
2022/11/11 09:48:45;;;;;;;13.93;6.03;;;;;;;6.54;100.00;97944.78;5057024;28;20211;-69
2022/11/11 09:51:18;;;;;;;19.23;6.23;;;;;;;6.57;100.00;97944.59;5064136;28;20468;-72
2022/11/11 09:53:50;;;;;;;11.83;6.53;;;;;;;6.73;100.00;97937.25;5054607;28;20376;-70
2022/11/11 09:56:20;;;;;;;13.43;6.57;;;;;;;6.75;100.00;97940.63;5054859;28;20234;-70
2022/11/11 09:58:51;;;;;;;16.20;8.00;;;;;;;6.75;100.00;97945.84;5057320;28;20200;-70
2022/11/11 10:01:21;;;;;;;23.33;8.13;;;;;;;6.88;100.00;97944.81;5056923;28;20246;-71
2022/11/11 10:03:54;;;;;;;22.17;8.97;;;;;;;6.82;100.00;97936.59;5055908;28;20200;-70
2022/11/11 10:06:26;;;;;;;20.70;9.27;;;;;;;6.77;100.00;97933.47;5056371;28;21051;-71
2022/11/11 10:09:01;;;;;;;21.30;10.27;;;;;;;6.95;100.00;97935.59;5057122;28;20196;-71
2022/11/11 10:11:39;;;;;;;23.73;9.13;;;;;;;6.99;100.00;97941.44;5056703;28;20269;-72
2022/11/11 10:14:06;;;;;;;21.97;7.40;;;;;;;6.77;100.00;97936.09;5056346;28;20211;-70
2022/11/11 10:16:44;;;;;;;15.70;6.57;;;;;;;6.65;100.00;97936.16;5053655;28;20224;-71
2022/11/11 10:19:25;;;;;;;16.37;7.47;;;;;;;6.86;100.00;97924.94;5056755;28;20208;-72
2022/11/11 10:21:53;;;;;;;15.57;8.07;;;;;;;6.92;100.00;97927.09;5058500;28;20218;-71
2022/11/11 10:24:29;;;;;;;19.03;8.63;;;;;;;6.88;100.00;97933.53;5059704;28;20576;-72
2022/11/11 10:27:01;;;;;;;14.23;8.03;;;;;;;7.01;100.00;97932.47;5057130;28;20318;-71
2022/11/11 10:29:39;;;;;;;18.60;8.53;;;;;;;7.00;100.00;97929.97;5060165;28;20572;-73
2022/11/11 10:32:12;;;;;;;14.27;7.57;;;;;;;7.13;100.00;97922.84;5060407;28;20205;-71
2022/11/11 10:34:38;;;;;;;21.80;9.80;;;;;;;6.89;100.00;97929.97;5063648;28;20219;-71
2022/11/11 10:37:18;;;;;;;12.57;6.03;;;;;;;6.95;100.00;97921.63;5063584;28;20310;-73
2022/11/11 10:40:00;;;;;;;23.73;10.13;;;;;;;6.90;100.00;97923.78;5064667;28;20257;-71
2022/11/11 10:42:28;;;;;;;23.60;10.33;;;;;;;6.95;100.00;97911.13;5067758;28;20903;-72
2022/11/11 10:44:59;;;;;;;24.90;11.40;;;;;;;7.00;100.00;97906.38;5060201;28;20200;-72
2022/11/11 10:47:39;;;;;;;18.57;9.80;;;;;;;7.14;100.00;97909.66;5059572;28;20577;-72
2022/11/11 10:50:14;;;;;;;17.37;7.50;;;;;;;7.08;100.00;97917.16;5059620;28;20555;-72
2022/11/11 10:52:44;;;;;;;16.50;7.73;;;;;;;7.19;100.00;97911.91;5059524;28;20579;-71
2022/11/11 10:55:18;;;;;;;19.57;8.27;;;;;;;7.17;100.00;97913.84;5060102;28;20200;-71
2022/11/11 10:57:53;;;;;;;18.23;8.03;;;;;;;7.19;100.00;97918.00;5059206;28;20224;-73
2022/11/11 11:00:19;;;;;;;10.97;4.87;;;;;;;7.12;100.00;97915.97;5060068;28;20203;-71
2022/11/11 11:02:56;;;;;;;21.77;7.77;;;;;;;6.98;100.00;97917.00;5058872;28;20196;-72
2022/11/11 11:05:27;;;;;;;14.53;7.90;;;;;;;7.14;100.00;97904.44;5059369;28;20205;-73
2022/11/11 11:07:59;;;;;;;15.30;7.50;;;;;;;7.19;100.00;97910.13;5063965;28;20212;-70
2022/11/11 11:10:32;;;;;;;17.87;8.73;;;;;;;7.11;100.00;97907.25;5067153;28;20671;-71
2022/11/11 11:13:05;;;;;;;29.03;11.57;;;;;;;7.24;100.00;97909.78;5058580;28;21410;-72
2022/11/11 11:15:36;;;;;;;24.13;10.93;;;;;;;7.16;100.00;97912.16;5059282;28;20204;-72
2022/11/11 11:18:08;;;;;;;24.60;9.87;;;;;;;7.24;100.00;97904.56;5057691;28;20228;-70
2022/11/11 11:20:35;;;;;;;27.33;12.20;;;;;;;7.26;100.00;97898.25;5059065;28;20207;-71
2022/11/11 11:23:01;;;;;;;19.57;8.87;;;;;;;7.42;100.00;97904.81;5058078;28;20204;-73
2022/11/11 11:25:31;;;;;;;19.57;9.70;;;;;;;7.39;100.00;97899.78;5062805;28;20225;-71
2022/11/11 11:28:17;;;;;;;21.80;11.33;;;;;;;7.58;100.00;97901.84;5059218;28;20228;-73
2022/11/11 11:30:58;;;;;;;26.07;12.23;;;;;;;7.74;100.00;97902.31;5056285;28;20202;-70
2022/11/11 11:33:25;;;;;;;30.40;13.03;;;;;;;7.79;100.00;97901.03;5058387;28;20208;-69
2022/11/11 11:35:51;;;;;;;21.93;11.37;;;;;;;7.69;100.00;97897.44;5060741;28;20208;-69
2022/11/11 11:38:18;;;;;;;19.90;10.20;;;;;;;7.92;100.00;97904.34;5058816;28;20728;-70
2022/11/11 11:40:50;;;;;;;20.90;10.20;;;;;;;7.80;100.00;97900.03;5059463;28;20201;-70
2022/11/11 11:43:27;;;;;;;21.60;10.00;;;;;;;8.04;100.00;97901.59;5058094;28;20197;-69
2022/11/11 11:45:56;;;;;;;20.77;9.00;;;;;;;7.98;100.00;97914.34;5059069;28;20196;-69
2022/11/11 11:48:33;;;;;;;17.83;8.87;;;;;;;8.20;100.00;97909.94;5066528;28;20234;-69
2022/11/11 11:51:13;;;;;;;23.83;10.53;;;;;;;7.93;100.00;97911.28;5058419;28;20211;-69
2022/11/11 11:53:55;;;;;;;22.37;11.00;;;;;;;7.96;100.00;97917.09;5064628;28;20730;-69
2022/11/11 11:56:30;;;;;;;17.43;9.27;;;;;;;8.01;100.00;97904.44;5056909;28;20342;-70
2022/11/11 11:59:05;;;;;;;20.23;8.40;;;;;;;8.05;100.00;97905.88;5065688;28;20215;-69
2022/11/11 12:01:39;;;;;;;17.47;8.30;;;;;;;7.93;100.00;97906.84;5057914;28;20192;-69
2022/11/11 12:04:26;;;;;;;14.43;8.07;;;;;;;8.04;100.00;97906.00;5056560;28;20240;-69
2022/11/11 12:07:05;;;;;;;16.67;8.47;;;;;;;8.01;100.00;97903.63;5056330;28;20711;-69
2022/11/11 12:09:42;;;;;;;17.93;8.67;;;;;;;8.14;100.00;97909.59;5057700;28;20205;-70
2022/11/11 12:12:19;;;;;;;20.70;10.17;;;;;;;8.06;100.00;97890.97;5057992;28;20205;-69
2022/11/11 12:15:03;;;;;;;31.33;14.97;;;;;;;8.17;100.00;97898.84;5056495;28;20204;-69
2022/11/11 12:17:43;;;;;;;34.73;15.03;;;;;;;8.08;100.00;97894.28;5057759;28;20232;-69
2022/11/11 12:20:18;;;;;;;18.77;9.40;;;;;;;8.17;100.00;97885.72;5059012;28;20219;-70
2022/11/11 12:23:00;;;;;;;20.73;10.97;;;;;;;8.25;100.00;97881.53;5056847;28;20659;-69
2022/11/11 12:25:39;;;;;;;21.40;10.37;;;;;;;8.05;100.00;97879.63;5058847;28;20584;-69
2022/11/11 12:28:19;;;;;;;21.80;9.83;;;;;;;8.19;100.00;97876.75;5058686;28;20310;-72
2022/11/11 12:30:56;;;;;;;22.20;10.03;;;;;;;8.07;100.00;97869.84;5055705;28;20199;-72
2022/11/11 12:33:47;;;;;;;22.90;10.03;;;;;;;8.21;100.00;97874.84;5065012;28;20211;-71
2022/11/11 12:36:19;;;;;;;19.73;9.60;;;;;;;8.14;100.00;97872.84;5056993;28;20212;-73
2022/11/11 12:38:58;;;;;;;23.87;10.43;;;;;;;8.29;100.00;97863.75;5057300;28;20205;-73
2022/11/11 12:41:39;;;;;;;20.90;9.30;;;;;;;8.19;100.00;97861.00;5059491;28;20200;-73
2022/11/11 12:44:08;;;;;;;20.13;9.47;;;;;;;8.26;100.00;97861.34;5059718;28;20211;-71
2022/11/11 12:46:53;;;;;;;17.43;8.73;;;;;;;8.53;100.00;97865.22;5056653;28;20220;-72
2022/11/11 12:49:44;;;;;;;20.30;9.20;;;;;;;8.29;100.00;97863.75;5057388;28;20219;-73
2022/11/11 12:52:28;;;;;;;21.77;8.53;;;;;;;8.25;100.00;97860.53;5056430;28;20664;-71